Time;durP1;ratioP1;P1;durP2;ratioP2;P2;SDS_P1;SDS_P2;PMS_P1;PMS_P2;Temp;Humidity;BMP_temperature;BMP_pressure;BME280_temperature;BME280_humidity;BME280_pressure;Samples;Min_cycle;Max_cycle;Signal;HPM_P1;HPM_P2
2023/10/03 00:13:52;;;;;;;12.60;6.70;;;;;;;14.52;67.14;100414.44;31209972;28;96790;-72
2023/10/03 00:28:53;;;;;;;12.30;6.43;;;;;;;14.35;67.35;100403.09;31208954;28;99197;-76
2023/10/03 00:43:56;;;;;;;11.27;6.22;;;;;;;14.13;67.89;100391.53;31207055;28;113018;-76
2023/10/03 00:58:57;;;;;;;10.73;5.57;;;;;;;14.03;68.49;100373.09;31205490;28;98074;-77
2023/10/03 01:13:59;;;;;;;13.17;6.37;;;;;;;13.80;68.92;100360.66;31219297;28;96738;-70
2023/10/03 01:29:00;;;;;;;13.03;5.70;;;;;;;13.62;69.29;100355.69;31225865;28;97175;-76
2023/10/03 01:44:00;;;;;;;10.43;5.72;;;;;;;13.50;69.95;100349.16;31222834;28;97068;-77
2023/10/03 01:59:01;;;;;;;9.77;5.40;;;;;;;13.41;70.46;100337.72;31222967;27;96788;-73
2023/10/03 02:14:06;;;;;;;11.57;5.80;;;;;;;13.35;70.66;100315.22;31221488;28;97733;-75
2023/10/03 02:29:06;;;;;;;15.20;6.07;;;;;;;13.24;70.83;100299.56;31216739;27;96856;-75
2023/10/03 02:44:07;;;;;;;17.23;6.93;;;;;;;13.04;71.29;100278.75;31216652;28;96787;-76
2023/10/03 02:59:07;;;;;;;13.05;5.80;;;;;;;12.91;72.02;100267.03;31213051;27;96661;-75
2023/10/03 03:14:07;;;;;;;15.75;6.53;;;;;;;12.79;72.02;100238.06;31213724;28;97219;-66
2023/10/03 03:29:20;;;;;;;12.20;6.70;;;;;;;12.72;72.40;100225.63;31209395;28;118043;-70
2023/10/03 03:44:21;;;;;;;19.73;8.60;;;;;;;12.64;72.63;100213.19;31191876;28;97561;-74
2023/10/03 03:59:22;;;;;;;13.63;6.20;;;;;;;12.53;72.86;100199.28;31207587;28;96728;-70
2023/10/03 04:14:22;;;;;;;19.20;6.83;;;;;;;12.43;73.08;100193.34;31205726;28;97181;-67
2023/10/03 04:29:23;;;;;;;10.13;6.43;;;;;;;12.35;73.25;100186.22;31203708;28;97234;-73
2023/10/03 04:44:23;;;;;;;16.13;6.93;;;;;;;12.33;74.04;100168.75;31190480;27;111317;-65
2023/10/03 04:59:25;;;;;;;15.02;6.93;;;;;;;12.35;73.78;100150.69;31224440;27;96822;-68
2023/10/03 05:14:25;;;;;;;10.73;6.17;;;;;;;12.46;74.54;100144.06;31222480;28;97666;-73
2023/10/03 05:29:29;;;;;;;15.50;6.63;;;;;;;12.82;74.52;100122.75;31221095;28;96924;-65
2023/10/03 05:44:29;;;;;;;;;;;;;;;13.56;74.13;100118.25;31219371;28;110903;-75
2023/10/03 05:59:29;;;;;;;12.55;5.93;;;;;;;14.41;73.10;100114.75;31219062;27;96797;-69
2023/10/03 06:14:30;;;;;;;12.40;5.45;;;;;;;15.45;72.15;100094.94;31216487;28;97571;-67
2023/10/03 06:29:30;;;;;;;12.43;5.40;;;;;;;16.70;71.08;100093.34;31213831;28;97256;-65
2023/10/03 06:44:30;;;;;;;18.25;5.13;;;;;;;18.21;68.75;100087.41;31213712;28;97174;-65
2023/10/03 06:59:33;;;;;;;10.45;5.63;;;;;;;19.07;66.02;100068.53;31191273;28;98279;-66
2023/10/03 07:14:35;;;;;;;11.27;5.47;;;;;;;20.34;63.91;100054.78;31206720;28;96874;-63
2023/10/03 07:29:42;;;;;;;10.57;5.10;;;;;;;21.81;61.24;100051.53;31207943;28;97352;-62
2023/10/03 07:44:43;;;;;;;11.57;5.87;;;;;;;23.00;56.04;100045.72;31205707;28;97538;-63
2023/10/03 07:59:43;;;;;;;15.83;5.93;;;;;;;23.78;52.88;100028.16;31203330;27;97537;-63
2023/10/03 08:14:43;;;;;;;;;;;;;;;25.16;49.00;100046.16;31206508;27;97202;-62
2023/10/03 08:29:50;;;;;;;9.90;4.57;;;;;;;29.57;40.88;100042.22;31227719;28;101499;-74
2023/10/03 08:44:52;;;;;;;10.30;5.50;;;;;;;34.17;30.06;100015.03;31224440;28;97722;-65
2023/10/03 08:59:52;;;;;;;9.30;5.63;;;;;;;38.23;24.32;99992.91;31223454;27;97108;-69
2023/10/03 09:14:53;;;;;;;9.40;4.90;;;;;;;40.39;21.44;99979.28;31223947;28;97741;-62
2023/10/03 09:29:53;;;;;;;10.77;5.20;;;;;;;40.76;20.06;99969.41;31221113;28;97551;-62
2023/10/03 09:45:00;;;;;;;10.80;5.53;;;;;;;42.87;17.90;99943.34;31217214;28;100727;-61
2023/10/03 10:00:00;;;;;;;7.70;4.73;;;;;;;44.48;16.60;99937.97;31213795;27;97356;-63
2023/10/03 10:30:13;;;;;;;8.70;5.00;;;;;;;47.07;13.34;99905.63;31213353;28;97212;-67
2023/10/03 10:45:17;;;;;;;9.73;5.30;;;;;;;48.07;13.18;99897.31;31213465;28;97296;-69
2023/10/03 11:00:21;;;;;;;8.17;4.70;;;;;;;47.49;13.50;99857.38;31213901;27;97323;-71
2023/10/03 11:15:22;;;;;;;10.60;5.93;;;;;;;48.76;12.87;99837.28;31209312;28;97556;-61
2023/10/03 11:30:22;;;;;;;8.80;5.63;;;;;;;49.39;12.08;99797.69;31189927;28;97797;-75
2023/10/03 11:45:29;;;;;;;11.32;5.85;;;;;;;46.40;13.86;99782.31;31205955;28;98095;-71
2023/10/03 12:00:29;;;;;;;10.33;4.97;;;;;;;46.70;14.07;99763.69;31203337;27;97223;-63
2023/10/03 12:15:30;;;;;;;11.15;6.07;;;;;;;41.31;17.43;99728.50;31206577;28;97434;-70
2023/10/03 12:30:31;;;;;;;11.23;5.25;;;;;;;41.30;17.93;99740.03;31204942;28;97697;-69
2023/10/03 12:45:31;;;;;;;10.83;5.10;;;;;;;42.72;17.03;99723.28;31202950;28;97353;-70
2023/10/03 13:00:34;;;;;;;11.18;5.88;;;;;;;33.44;22.65;99720.56;31201596;27;96687;-72
2023/10/03 13:15:35;;;;;;;13.13;5.53;;;;;;;30.21;27.21;99703.72;31222478;28;97312;-70
2023/10/03 13:30:35;;;;;;;9.65;4.95;;;;;;;31.46;27.32;99730.25;31219911;28;98478;-62
2023/10/03 13:45:35;;;;;;;10.82;5.78;;;;;;;39.18;20.16;99681.78;31219321;28;96798;-74
2023/10/03 14:00:36;;;;;;;13.23;6.13;;;;;;;38.52;20.17;99684.72;31218753;28;111895;-66
2023/10/03 14:15:40;;;;;;;12.50;6.07;;;;;;;32.72;25.73;99655.91;31215536;27;97421;-64
2023/10/03 14:30:40;;;;;;;14.37;5.50;;;;;;;28.83;32.11;99675.53;31216389;28;96610;-74
2023/10/03 14:45:41;;;;;;;13.82;6.15;;;;;;;27.92;34.17;99668.63;31212170;28;97287;-69
2023/10/03 15:00:42;;;;;;;14.35;5.90;;;;;;;27.12;36.18;99657.44;31212508;28;97066;-65
2023/10/03 15:15:42;;;;;;;11.13;5.63;;;;;;;25.94;39.05;99670.41;31211909;28;97143;-63
2023/10/03 15:30:45;;;;;;;11.40;5.45;;;;;;;25.03;41.25;99674.22;31210532;27;103503;-77
2023/10/03 15:45:46;;;;;;;10.40;6.37;;;;;;;24.16;43.91;99675.19;31209445;28;97460;-75
2023/10/03 16:00:47;;;;;;;12.73;6.07;;;;;;;23.59;45.88;99667.00;31206172;28;97422;-69
2023/10/03 16:15:47;;;;;;;;;;;;;;;23.14;47.24;99668.50;31206298;28;97206;-69
2023/10/03 16:30:48;;;;;;;16.47;6.73;;;;;;;22.70;48.72;99672.34;31203773;28;97631;-60
2023/10/03 16:45:48;;;;;;;10.45;5.25;;;;;;;22.38;49.76;99669.75;31219038;27;97275;-67
2023/10/03 17:00:49;;;;;;;14.13;5.70;;;;;;;22.17;50.56;99669.56;31223683;28;96806;-64
2023/10/03 17:15:50;;;;;;;12.23;6.22;;;;;;;21.90;50.97;99659.59;31224352;28;97482;-62
2023/10/03 17:30:50;;;;;;;13.03;6.80;;;;;;;21.60;51.73;99652.00;31219362;28;96815;-67
2023/10/03 17:45:51;;;;;;;13.10;6.80;;;;;;;21.39;52.41;99642.81;31218416;28;98776;-67
2023/10/03 18:00:51;;;;;;;12.90;6.30;;;;;;;21.14;53.33;99633.34;31217336;27;97326;-66
2023/10/03 18:15:52;;;;;;;13.77;5.73;;;;;;;21.14;54.05;99636.03;31215993;28;97054;-60
2023/10/03 18:30:53;;;;;;;12.57;6.23;;;;;;;21.09;54.24;99600.78;31215046;28;97088;-73
2023/10/03 18:45:53;;;;;;;11.37;6.47;;;;;;;21.00;54.97;99599.63;31214672;27;101806;-67
2023/10/03 19:00:55;;;;;;;11.67;6.47;;;;;;;21.10;55.18;99586.16;31212458;27;97424;-63
2023/10/03 19:15:56;;;;;;;15.43;6.40;;;;;;;21.18;56.02;99647.19;31212603;28;96763;-60
2023/10/03 19:30:56;;;;;;;8.48;4.57;;;;;;;18.11;65.11;99923.44;31211548;28;96724;-66
2023/10/03 19:45:57;;;;;;;11.38;4.75;;;;;;;16.52;72.54;99999.94;31208463;28;98241;-64
2023/10/03 20:00:57;;;;;;;10.25;3.70;;;;;;;15.80;75.13;100045.59;31210846;28;97188;-62
2023/10/03 20:15:58;;;;;;;5.30;2.72;;;;;;;15.29;76.93;100089.97;31211110;28;97298;-63
2023/10/03 20:30:58;;;;;;;7.28;3.20;;;;;;;15.12;78.35;100100.22;31207334;28;97484;-64
2023/10/03 20:45:59;;;;;;;9.10;3.33;;;;;;;14.99;79.12;100107.19;31204302;28;97245;-71
2023/10/03 21:00:59;;;;;;;6.60;2.78;;;;;;;15.11;79.47;100136.97;31203871;28;96852;-62
2023/10/03 21:16:05;;;;;;;9.98;3.03;;;;;;;15.12;79.46;100098.38;31204005;28;107813;-73
2023/10/03 21:31:06;;;;;;;6.83;3.23;;;;;;;15.13;79.75;100193.94;31216397;27;97870;-70
2023/10/03 21:46:08;;;;;;;4.97;2.50;;;;;;;15.12;80.13;100216.44;31223287;27;97370;-73
2023/10/03 22:01:12;;;;;;;5.83;2.63;;;;;;;15.06;80.14;100244.06;31224109;28;97370;-78
2023/10/03 22:16:15;;;;;;;5.03;2.63;;;;;;;14.97;79.97;100264.84;31222283;28;97018;-74
2023/10/03 22:31:16;;;;;;;8.30;2.73;;;;;;;14.99;80.56;100299.53;31219637;28;96767;-76
2023/10/03 22:46:18;;;;;;;3.60;1.50;;;;;;;14.63;80.57;100364.88;31216143;27;97686;-76
2023/10/03 23:01:19;;;;;;;2.63;0.97;;;;;;;14.53;80.94;100360.63;31216751;28;97173;-77
2023/10/03 23:16:19;;;;;;;4.80;1.17;;;;;;;14.48;80.79;100456.03;31216539;28;97186;-73
2023/10/03 23:31:20;;;;;;;2.90;1.00;;;;;;;14.34;80.26;100514.03;31215042;28;112758;-63
2023/10/03 23:46:23;;;;;;;2.13;1.20;;;;;;;14.11;80.33;100544.41;31213106;27;96773;-77
